Decoded Metar for OIKK (KERMAN in IRAN) (IATA:KER) | Meteo·Mobile Aviation Weather
aviador You're here:

OIKK Decoded Metar

KERMAN in IRAN
Report Time2019-03-19 22:50:00
UTC Time2019-03-19 23:28:24
Flight Rules vfr VFR
Wind120° at 04 kt
W.Decomp.*RWY 16: 3.0 kt HW 2.7 kt LCW
RWY 05: 1.5 kt HW 3.7 kt RCW
W.Rank120° ranks 1
Current wind is below 120° avg. (5.6)
Visibility9999 m
Phenomena:N/A
Clouds:N/A
Expected CloudBase > 3,600 ft AGL from Temp-Dew spread
CeilingNone
Temp03°C (ISA -1)
Dew Point-6°C (52% RH)
AAT-1.1°C
QNH1016 hPa
Density Alt5,650 ft
Elevation5,755 ft
Report Wrong Elevation
Raw Report
METAR OIKK 192250Z 12004KT CAVOK 03/M06 Q1016 A3001=

Extra information for OIKK:More info

Metar Taf Metar & Taf Last 4 Metars F.Rules Stats Wind Profile Meteogram Temp Stats Airport Information Weather charts Add Link Nearby VenuesMetar ALERT Operation Metar Decoded Social comments